Time;durP1;ratioP1;P1;durP2;ratioP2;P2;SDS_P1;SDS_P2;PMS_P1;PMS_P2;Temp;Humidity;BMP_temperature;BMP_pressure;BME280_temperature;BME280_humidity;BME280_pressure;Samples;Min_cycle;Max_cycle;Signal;HPM_P1;HPM_P2
2023/08/29 00:00:24;;;;;;;2.50;1.98;;;;;;;15.39;100.00;99779.63;5020340;28;20049;-73
2023/08/29 00:02:54;;;;;;;2.95;2.53;;;;;;;15.59;100.00;99818.97;5028468;28;20059;-74
2023/08/29 00:05:24;;;;;;;3.28;2.17;;;;;;;15.52;100.00;99796.38;5012887;28;20045;-73
2023/08/29 00:07:53;;;;;;;2.80;2.60;;;;;;;15.51;100.00;99794.69;5018103;28;20156;-73
2023/08/29 00:10:22;;;;;;;4.72;2.63;;;;;;;15.48;100.00;99794.06;5021525;28;20049;-72
2023/08/29 00:12:50;;;;;;;2.53;2.15;;;;;;;15.49;100.00;99798.44;5035225;28;20037;-74
2023/08/29 00:15:20;;;;;;;3.05;2.53;;;;;;;15.49;100.00;99801.94;5031104;28;20056;-74
2023/08/29 00:17:51;;;;;;;2.40;2.20;;;;;;;15.46;100.00;99772.81;5035279;28;20041;-74
2023/08/29 00:20:22;;;;;;;2.53;2.33;;;;;;;15.53;100.00;99789.22;5031836;28;20037;-73
2023/08/29 00:22:51;;;;;;;4.20;2.40;;;;;;;15.55;100.00;99796.19;5015854;28;20053;-73
2023/08/29 00:25:19;;;;;;;4.60;2.63;;;;;;;15.50;100.00;99786.78;5029095;28;20053;-73
2023/08/29 00:27:47;;;;;;;6.75;2.22;;;;;;;15.47;100.00;99795.88;5012123;28;20044;-72
2023/08/29 00:30:15;;;;;;;3.03;2.40;;;;;;;15.49;100.00;99817.94;5015740;28;20030;-72
2023/08/29 00:32:43;;;;;;;3.08;2.58;;;;;;;15.40;100.00;99806.19;5011253;28;20044;-72
2023/08/29 00:35:12;;;;;;;2.75;2.50;;;;;;;15.46;100.00;99823.53;5027147;28;20073;-73
2023/08/29 00:37:49;;;;;;;5.05;2.63;;;;;;;15.45;100.00;99822.66;5014572;28;20038;-75
2023/08/29 00:40:17;;;;;;;5.07;2.92;;;;;;;15.35;100.00;99807.50;5013436;28;20042;-74
2023/08/29 00:42:49;;;;;;;3.45;2.55;;;;;;;15.20;100.00;99787.31;5010570;28;20482;-73
2023/08/29 00:45:18;;;;;;;4.32;2.08;;;;;;;15.48;100.00;99832.25;5011472;28;20048;-73
2023/08/29 00:47:46;;;;;;;4.88;2.20;;;;;;;15.50;100.00;99834.81;5015340;28;20571;-73
2023/08/29 00:50:14;;;;;;;4.43;2.33;;;;;;;15.51;100.00;99848.03;5033506;28;20042;-74
2023/08/29 00:52:48;;;;;;;2.65;2.35;;;;;;;15.52;100.00;99860.41;5041640;28;20060;-73
2023/08/29 00:55:19;;;;;;;2.63;2.35;;;;;;;15.57;100.00;99860.97;5013356;28;20075;-73
2023/08/29 00:57:50;;;;;;;2.15;1.92;;;;;;;15.49;100.00;99844.63;5019345;28;20173;-73
2023/08/29 01:00:21;;;;;;;4.95;2.03;;;;;;;15.62;100.00;99866.78;5017896;28;20506;-73
2023/08/29 01:02:50;;;;;;;3.45;2.25;;;;;;;15.68;100.00;99874.34;5036005;28;20049;-74
2023/08/29 01:05:20;;;;;;;2.20;2.00;;;;;;;15.49;100.00;99839.31;5028945;28;20049;-74
2023/08/29 01:07:52;;;;;;;2.65;2.10;;;;;;;15.71;100.00;99878.59;5031630;28;20064;-75
2023/08/29 01:10:29;;;;;;;2.75;2.00;;;;;;;15.67;100.00;99869.97;4998018;28;20042;-74
2023/08/29 01:13:11;;;;;;;2.38;2.17;;;;;;;15.76;100.00;99879.94;5013826;28;20053;-73
2023/08/29 01:15:44;;;;;;;2.40;2.05;;;;;;;15.78;100.00;99872.66;4994576;28;20053;-73
2023/08/29 01:18:13;;;;;;;2.30;2.10;;;;;;;15.78;100.00;99872.66;5012270;28;20034;-73
2023/08/29 01:20:43;;;;;;;2.38;2.15;;;;;;;15.75;100.00;99862.19;5030679;28;20044;-73
2023/08/29 01:23:22;;;;;;;3.22;2.15;;;;;;;15.65;100.00;99855.88;5036535;28;20076;-73
2023/08/29 01:25:57;;;;;;;3.17;2.00;;;;;;;15.81;100.00;99884.06;5012681;28;20537;-75
2023/08/29 01:28:29;;;;;;;4.25;2.20;;;;;;;15.75;100.00;99870.22;5015337;28;20054;-79
2023/08/29 01:30:58;;;;;;;3.75;2.05;;;;;;;15.81;100.00;99889.41;5014603;28;20045;-73
2023/08/29 01:33:27;;;;;;;4.20;2.40;;;;;;;15.64;100.00;99859.50;5007045;28;20057;-73
2023/08/29 01:35:57;;;;;;;2.90;2.08;;;;;;;15.78;100.00;99888.66;5013745;28;20084;-73
2023/08/29 01:38:29;;;;;;;3.25;2.25;;;;;;;15.66;100.00;99854.06;5011219;28;20064;-74
2023/08/29 01:40:57;;;;;;;3.95;2.33;;;;;;;15.85;100.00;99869.53;5025039;28;20128;-74
2023/08/29 01:43:29;;;;;;;3.70;2.13;;;;;;;15.87;100.00;99862.25;5013212;28;20038;-73
2023/08/29 01:45:58;;;;;;;2.60;2.20;;;;;;;15.86;100.00;99865.88;5035860;28;20573;-73
2023/08/29 01:48:28;;;;;;;2.20;2.00;;;;;;;15.86;100.00;99860.56;5010852;28;20054;-74
2023/08/29 01:50:57;;;;;;;3.13;2.13;;;;;;;15.85;100.00;99848.16;5019398;28;20065;-73
2023/08/29 01:53:25;;;;;;;2.90;1.90;;;;;;;15.82;100.00;99846.56;4995718;28;20108;-73
2023/08/29 01:55:54;;;;;;;3.10;2.08;;;;;;;15.73;100.00;99831.28;4994368;28;20065;-73
2023/08/29 01:58:23;;;;;;;2.38;2.17;;;;;;;15.78;100.00;99839.78;5015493;28;20045;-73
2023/08/29 02:00:54;;;;;;;3.50;2.13;;;;;;;15.76;100.00;99834.53;5017726;28;20041;-72
2023/08/29 02:03:23;;;;;;;2.75;2.13;;;;;;;15.66;100.00;99817.53;5030050;28;20041;-73
2023/08/29 02:05:52;;;;;;;2.40;1.90;;;;;;;15.76;100.00;99831.03;5017609;28;20068;-74
2023/08/29 02:08:20;;;;;;;3.00;2.22;;;;;;;15.70;100.00;99826.19;5017161;28;20742;-74
2023/08/29 02:10:49;;;;;;;2.92;2.10;;;;;;;15.67;100.00;99829.94;5015932;28;20041;-74
2023/08/29 02:13:18;;;;;;;2.25;2.00;;;;;;;15.72;100.00;99843.78;5013165;28;20046;-73
2023/08/29 02:15:47;;;;;;;2.53;1.83;;;;;;;15.67;100.00;99835.25;5015998;28;20056;-74
2023/08/29 02:18:16;;;;;;;2.95;2.00;;;;;;;15.69;100.00;99837.81;5014412;28;20037;-74
2023/08/29 02:20:45;;;;;;;2.20;2.00;;;;;;;15.67;100.00;99821.91;5016837;28;20068;-73
2023/08/29 02:23:14;;;;;;;2.80;1.80;;;;;;;15.58;100.00;99817.31;5013499;28;20046;-74
2023/08/29 02:25:43;;;;;;;2.42;2.05;;;;;;;15.60;100.00;99815.34;5014836;28;20049;-75
2023/08/29 02:28:11;;;;;;;3.17;2.10;;;;;;;15.62;100.00;99812.56;5006217;28;20041;-73
2023/08/29 02:30:40;;;;;;;3.05;1.80;;;;;;;15.58;100.00;99795.94;5033646;28;20095;-72
2023/08/29 02:33:08;;;;;;;3.67;2.10;;;;;;;15.64;100.00;99805.28;5010265;28;20041;-73
2023/08/29 02:35:40;;;;;;;2.38;2.05;;;;;;;15.69;100.00;99808.47;5020740;28;20056;-73
2023/08/29 02:38:09;;;;;;;2.80;2.13;;;;;;;15.61;100.00;99787.69;5031086;28;20054;-74
2023/08/29 02:40:38;;;;;;;2.42;1.90;;;;;;;15.53;100.00;99773.22;5017590;28;20049;-73
2023/08/29 02:43:08;;;;;;;4.88;2.40;;;;;;;15.56;100.00;99773.00;5009683;28;20136;-74
2023/08/29 02:45:36;;;;;;;2.00;1.80;;;;;;;15.58;100.00;99784.44;5030740;28;20041;-72
2023/08/29 02:48:06;;;;;;;2.63;2.20;;;;;;;15.60;100.00;99785.97;5023220;28;20735;-72
2023/08/29 02:50:35;;;;;;;2.38;2.13;;;;;;;15.55;100.00;99777.50;5029616;28;20502;-73
2023/08/29 02:53:05;;;;;;;2.85;1.83;;;;;;;15.58;100.00;99777.28;5013922;28;20046;-73
2023/08/29 02:55:33;;;;;;;4.47;2.22;;;;;;;15.58;100.00;99774.59;5009921;28;20068;-73
2023/08/29 02:58:02;;;;;;;2.03;1.73;;;;;;;15.35;100.00;99736.31;5024383;28;20049;-73
2023/08/29 03:00:31;;;;;;;2.65;1.67;;;;;;;15.53;100.00;99766.06;5011722;28;20049;-74
2023/08/29 03:02:59;;;;;;;2.53;2.15;;;;;;;15.52;100.00;99771.50;5012207;28;20605;-73
2023/08/29 03:05:28;;;;;;;3.08;2.00;;;;;;;15.53;100.00;99770.53;5042763;28;20081;-75
2023/08/29 03:07:58;;;;;;;3.17;1.95;;;;;;;15.47;100.00;99758.50;5022691;28;20628;-74
2023/08/29 03:10:30;;;;;;;2.30;2.10;;;;;;;15.35;100.00;99740.78;5028342;28;20045;-73
2023/08/29 03:12:58;;;;;;;4.55;2.00;;;;;;;15.44;100.00;99756.94;5015953;28;20133;-73
2023/08/29 03:15:26;;;;;;;3.83;2.00;;;;;;;15.49;100.00;99758.41;5015795;28;20056;-73
2023/08/29 03:17:55;;;;;;;2.95;1.75;;;;;;;15.48;100.00;99765.56;5006003;28;20046;-73
2023/08/29 03:20:24;;;;;;;3.03;1.83;;;;;;;15.41;100.00;99759.00;5014232;28;20458;-72
2023/08/29 03:22:54;;;;;;;3.80;2.03;;;;;;;15.42;100.00;99758.84;5020197;28;20061;-73
2023/08/29 03:25:23;;;;;;;2.08;1.70;;;;;;;15.44;100.00;99761.41;5012743;28;20038;-73
2023/08/29 03:27:52;;;;;;;2.92;2.00;;;;;;;15.42;100.00;99764.19;5010285;28;20041;-73
2023/08/29 03:30:21;;;;;;;1.88;1.77;;;;;;;15.43;100.00;99757.91;5016412;28;20060;-74
2023/08/29 03:32:50;;;;;;;2.60;1.80;;;;;;;15.44;100.00;99754.25;5001508;28;20096;-74
2023/08/29 03:35:20;;;;;;;3.25;1.80;;;;;;;15.50;100.00;99765.44;5015923;28;20057;-74
2023/08/29 03:37:49;;;;;;;1.70;1.60;;;;;;;15.44;100.00;99758.75;5011964;28;20041;-74
2023/08/29 03:40:19;;;;;;;3.47;1.77;;;;;;;15.42;100.00;99753.53;5009155;28;20517;-74
2023/08/29 03:42:48;;;;;;;3.08;1.88;;;;;;;15.37;100.00;99744.19;5014005;28;20040;-74
2023/08/29 03:45:18;;;;;;;1.95;1.73;;;;;;;15.45;100.00;99771.97;5011901;28;20107;-75
2023/08/29 03:47:46;;;;;;;;;;;;;;;15.45;100.00;99768.44;5006903;28;20049;-73
2023/08/29 03:50:15;;;;;;;2.83;1.77;;;;;;;15.31;100.00;99750.84;5024345;28;19936;-73
2023/08/29 03:52:46;;;;;;;4.88;1.90;;;;;;;15.44;100.00;99772.09;5029094;28;20030;-74
2023/08/29 03:55:15;;;;;;;2.05;1.60;;;;;;;15.48;100.00;99776.22;5029139;28;20073;-74
2023/08/29 03:57:44;;;;;;;2.78;1.80;;;;;;;15.50;100.00;99771.63;5005746;28;20458;-73
2023/08/29 04:00:14;;;;;;;2.03;1.70;;;;;;;15.39;100.00;99752.94;5015491;28;20126;-73
2023/08/29 04:02:48;;;;;;;1.92;1.63;;;;;;;15.50;100.00;99776.13;5029847;28;20041;-73
2023/08/29 04:05:17;;;;;;;6.15;1.92;;;;;;;15.39;100.00;99760.94;4998983;28;20497;-73
2023/08/29 04:07:49;;;;;;;3.20;1.85;;;;;;;15.47;100.00;99781.69;4991627;28;20111;-73
2023/08/29 04:10:17;;;;;;;2.70;1.83;;;;;;;15.46;100.00;99778.16;4998584;28;20053;-73
2023/08/29 04:12:45;;;;;;;2.22;1.60;;;;;;;15.36;100.00;99755.84;5013023;28;20042;-74
2023/08/29 04:15:14;;;;;;;2.55;1.70;;;;;;;15.38;100.00;99767.25;5018983;28;20115;-74
2023/08/29 04:17:43;;;;;;;1.88;1.77;;;;;;;15.28;100.00;99755.56;5009767;28;20053;-75
2023/08/29 04:20:16;;;;;;;3.95;1.63;;;;;;;15.41;100.00;99785.69;5009416;28;20144;-74
2023/08/29 04:22:46;;;;;;;3.10;2.00;;;;;;;15.35;100.00;99779.00;5019667;28;20065;-73
2023/08/29 04:25:14;;;;;;;4.45;1.85;;;;;;;15.33;100.00;99770.25;5038310;28;20041;-73
2023/08/29 04:27:46;;;;;;;3.90;2.13;;;;;;;15.38;100.00;99781.44;5012887;28;20494;-74
2023/08/29 04:30:15;;;;;;;2.92;2.15;;;;;;;15.28;100.00;99769.75;5002189;28;20045;-73
2023/08/29 04:32:43;;;;;;;3.22;2.30;;;;;;;15.33;100.00;99770.25;5013727;28;20506;-74
2023/08/29 04:35:13;;;;;;;3.30;2.20;;;;;;;15.36;100.00;99778.03;5019323;28;20102;-74
2023/08/29 04:37:47;;;;;;;2.60;2.00;;;;;;;15.35;100.00;99776.31;5025487;28;20148;-74
2023/08/29 04:40:18;;;;;;;4.78;2.20;;;;;;;15.34;100.00;99779.97;5012298;28;20049;-74
2023/08/29 04:42:46;;;;;;;4.20;2.10;;;;;;;15.35;100.00;99780.81;5028174;28;20080;-73
2023/08/29 04:45:14;;;;;;;4.07;2.55;;;;;;;15.36;100.00;99774.50;5015088;28;20088;-73
2023/08/29 04:47:43;;;;;;;3.75;1.95;;;;;;;15.34;100.00;99771.94;5009638;28;20434;-73
2023/08/29 04:50:13;;;;;;;2.85;2.58;;;;;;;15.40;100.00;99786.66;4999346;28;20501;-73
2023/08/29 04:52:41;;;;;;;3.57;2.10;;;;;;;15.41;100.00;99777.69;4996568;28;20047;-73
2023/08/29 04:55:09;;;;;;;3.05;2.03;;;;;;;15.41;100.00;99777.69;4964348;28;20565;-75
2023/08/29 04:57:38;;;;;;;4.60;2.10;;;;;;;15.40;100.00;99782.16;4966927;28;20055;-74
2023/08/29 05:00:09;;;;;;;2.72;2.38;;;;;;;15.26;100.00;99746.84;4999016;28;20053;-73
2023/08/29 05:02:38;;;;;;;4.55;2.47;;;;;;;15.42;100.00;99772.19;4975444;28;20054;-73
2023/08/29 05:05:07;;;;;;;4.60;2.53;;;;;;;15.39;100.00;99766.28;4978462;28;20061;-75
2023/08/29 05:07:37;;;;;;;4.07;2.25;;;;;;;15.43;100.00;99760.56;4956425;28;20054;-73
2023/08/29 05:10:06;;;;;;;3.55;2.42;;;;;;;15.47;100.00;99760.34;4973693;28;20045;-73
2023/08/29 05:12:35;;;;;;;3.08;1.90;;;;;;;15.57;100.00;99766.72;4972885;28;20059;-73
2023/08/29 05:15:06;;;;;;;3.25;1.90;;;;;;;15.57;100.00;99762.22;4993457;28;20462;-74
2023/08/29 05:17:36;;;;;;;3.65;2.17;;;;;;;15.68;100.00;99777.41;4972893;28;20074;-73
2023/08/29 05:20:09;;;;;;;5.45;2.00;;;;;;;15.73;100.00;99778.75;4967935;28;20111;-74
2023/08/29 05:22:55;;;;;;;2.67;2.13;;;;;;;15.71;100.00;99764.66;4978929;28;20047;-74
2023/08/29 05:25:25;;;;;;;2.30;1.73;;;;;;;15.69;100.00;99755.06;4991260;28;20061;-73
2023/08/29 05:27:54;;;;;;;5.55;2.10;;;;;;;15.85;100.00;99773.41;4969273;28;20109;-74
2023/08/29 05:30:21;;;;;;;3.75;1.83;;;;;;;15.85;100.00;99766.25;4991380;28;20045;-73
2023/08/29 05:32:49;;;;;;;3.28;1.83;;;;;;;15.92;100.00;99763.94;4981334;28;20442;-73
2023/08/29 05:35:18;;;;;;;3.03;2.33;;;;;;;15.98;100.00;99760.78;4982766;28;20783;-73
2023/08/29 05:37:46;;;;;;;2.70;2.00;;;;;;;16.01;100.00;99760.56;4978144;28;20070;-73
2023/08/29 05:40:17;;;;;;;4.78;2.42;;;;;;;16.01;100.00;99755.22;4992425;28;20081;-73
2023/08/29 05:42:45;;;;;;;3.47;2.80;;;;;;;16.09;100.00;99764.28;4973826;28;20052;-73
2023/08/29 05:45:13;;;;;;;5.13;2.45;;;;;;;16.09;100.00;99760.78;4972214;28;20142;-73
2023/08/29 05:47:41;;;;;;;3.15;2.08;;;;;;;16.11;100.00;99759.69;4968370;28;20042;-72
2023/08/29 05:50:10;;;;;;;3.75;2.13;;;;;;;16.10;100.00;99755.31;4973978;28;20057;-72
2023/08/29 05:52:39;;;;;;;4.15;2.17;;;;;;;16.10;100.00;99760.66;4995134;28;20065;-73
2023/08/29 05:55:08;;;;;;;5.45;2.20;;;;;;;16.08;100.00;99757.25;4982890;28;20050;-73
2023/08/29 05:57:38;;;;;;;3.63;2.47;;;;;;;16.18;100.00;99762.72;4983140;28;20116;-73
2023/08/29 06:00:09;;;;;;;3.97;2.35;;;;;;;16.20;100.00;99760.78;4983384;28;20141;-75
2023/08/29 06:02:43;;;;;;;2.83;2.40;;;;;;;16.05;100.00;99735.31;4978822;28;20042;-75
2023/08/29 06:05:12;;;;;;;3.28;1.80;;;;;;;16.20;100.00;99758.13;4964439;28;20042;-73
2023/08/29 06:07:40;;;;;;;4.22;2.00;;;;;;;16.25;100.00;99763.91;4983311;28;20053;-75
2023/08/29 06:10:11;;;;;;;2.42;2.08;;;;;;;16.25;100.00;99758.56;4994445;28;20089;-73
2023/08/29 06:12:41;;;;;;;3.80;2.15;;;;;;;16.20;100.00;99754.59;4993092;28;20042;-74
2023/08/29 06:15:10;;;;;;;7.35;2.30;;;;;;;16.22;100.00;99758.81;4973926;28;20042;-74
2023/08/29 06:17:40;;;;;;;5.65;2.25;;;;;;;16.19;100.00;99755.56;4967570;28;20570;-73
2023/08/29 06:20:11;;;;;;;5.05;2.40;;;;;;;16.19;100.00;99758.22;4972300;28;20055;-75
2023/08/29 06:22:40;;;;;;;5.45;2.30;;;;;;;16.21;100.00;99766.97;4974170;28;20038;-73
2023/08/29 06:25:09;;;;;;;4.93;2.20;;;;;;;16.13;100.00;99748.88;4977261;28;20082;-73
2023/08/29 06:27:38;;;;;;;3.87;2.27;;;;;;;16.12;100.00;99756.03;4989749;28;20085;-75
2023/08/29 06:30:13;;;;;;;4.13;2.05;;;;;;;16.21;100.00;99767.84;4971418;28;20045;-73
2023/08/29 06:32:43;;;;;;;2.95;1.80;;;;;;;16.23;100.00;99771.19;4989801;28;20066;-73
2023/08/29 06:35:12;;;;;;;3.53;1.90;;;;;;;16.34;100.00;99770.38;4998395;28;20115;-74
2023/08/29 06:37:42;;;;;;;;;;;;;;;16.37;100.00;99772.78;4973096;28;20045;-73
2023/08/29 06:40:11;;;;;;;2.95;1.83;;;;;;;16.44;100.00;99769.47;4988143;28;20023;-75
2023/08/29 06:42:41;;;;;;;4.57;1.65;;;;;;;16.53;100.00;99769.72;4993033;28;20081;-75
2023/08/29 06:45:12;;;;;;;2.30;1.63;;;;;;;16.60;100.00;99770.91;4972429;28;20585;-75
2023/08/29 06:47:40;;;;;;;;;;;;;;;16.59;100.00;99772.72;4984768;28;20042;-76
2023/08/29 06:50:12;;;;;;;3.58;1.65;;;;;;;16.61;100.00;99775.28;4993747;28;19957;-74
2023/08/29 06:52:40;;;;;;;6.30;1.88;;;;;;;16.59;100.00;99774.56;4965135;28;20053;-74
2023/08/29 06:55:10;;;;;;;3.53;1.85;;;;;;;16.60;100.00;99778.94;4975381;28;20049;-75
2023/08/29 06:57:42;;;;;;;4.55;1.70;;;;;;;16.64;100.00;99775.91;4989883;28;20516;-74
2023/08/29 07:00:13;;;;;;;4.10;1.90;;;;;;;16.61;100.00;99775.28;4983546;28;20042;-73
2023/08/29 07:02:42;;;;;;;3.92;1.80;;;;;;;16.68;100.00;99784.53;4997163;28;20495;-74
2023/08/29 07:05:10;;;;;;;3.58;1.65;;;;;;;16.73;100.00;99787.66;4991968;28;20053;-74
2023/08/29 07:07:40;;;;;;;2.50;1.90;;;;;;;16.77;100.00;99783.78;4992529;28;20050;-73
2023/08/29 07:10:10;;;;;;;2.05;1.60;;;;;;;16.84;100.00;99787.66;4989827;28;20080;-74
2023/08/29 07:12:38;;;;;;;3.15;1.65;;;;;;;16.82;100.00;99760.19;4997622;28;20049;-74
2023/08/29 07:15:08;;;;;;;3.13;1.77;;;;;;;16.95;100.00;99779.59;4999132;28;20049;-75
2023/08/29 07:17:39;;;;;;;3.55;1.52;;;;;;;17.06;100.00;99789.38;4977265;28;20133;-74
2023/08/29 07:20:12;;;;;;;3.03;1.83;;;;;;;16.93;100.00;99754.78;5009836;28;20053;-73
2023/08/29 07:22:43;;;;;;;3.30;1.70;;;;;;;17.08;100.00;99769.56;5007529;28;20101;-75
2023/08/29 07:25:14;;;;;;;3.42;1.73;;;;;;;17.22;100.00;99781.78;5012093;28;20104;-73
2023/08/29 07:27:44;;;;;;;3.20;1.70;;;;;;;17.23;100.00;99782.63;4994537;28;20042;-73
2023/08/29 07:30:15;;;;;;;2.63;1.80;;;;;;;17.28;100.00;99781.25;4987443;28;20046;-74
2023/08/29 07:32:46;;;;;;;3.63;1.60;;;;;;;17.37;100.00;99791.19;5032789;28;20101;-74
2023/08/29 07:35:16;;;;;;;4.30;1.70;;;;;;;17.43;100.00;99800.53;5007831;28;20069;-73
2023/08/29 07:37:44;;;;;;;4.10;1.58;;;;;;;17.53;100.00;99802.28;5022323;28;20064;-74
2023/08/29 07:40:14;;;;;;;2.25;1.80;;;;;;;17.50;100.00;99775.78;5002769;28;20049;-76
2023/08/29 07:42:42;;;;;;;4.75;1.75;;;;;;;17.78;100.00;99798.41;5009506;28;20045;-74
2023/08/29 07:45:11;;;;;;;4.40;1.65;;;;;;;17.88;100.00;99804.66;4996079;28;20141;-74
2023/08/29 07:47:40;;;;;;;2.25;1.40;;;;;;;17.99;100.00;99814.44;4994439;28;20057;-74
2023/08/29 07:50:10;;;;;;;6.05;1.73;;;;;;;18.02;100.00;99819.53;4989778;28;20073;-73
2023/08/29 07:52:38;;;;;;;5.78;1.77;;;;;;;18.08;100.00;99810.97;4998698;28;20050;-75
2023/08/29 07:55:10;;;;;;;3.60;1.63;;;;;;;18.05;100.00;99786.25;4999770;28;20133;-73
2023/08/29 07:57:40;;;;;;;3.92;1.55;;;;;;;18.32;100.00;99804.41;5012625;28;20613;-73
2023/08/29 08:00:10;;;;;;;3.53;1.45;;;;;;;18.51;100.00;99813.38;5026537;28;20050;-74
2023/08/29 08:02:39;;;;;;;5.93;1.80;;;;;;;18.66;100.00;99824.59;5013045;28;20046;-74
2023/08/29 08:05:11;;;;;;;2.50;1.42;;;;;;;18.74;100.00;99819.38;5003526;28;20065;-74
2023/08/29 08:07:42;;;;;;;2.50;1.48;;;;;;;18.70;100.00;99804.56;4992799;28;20578;-74
2023/08/29 08:10:12;;;;;;;2.88;1.45;;;;;;;18.63;100.00;99786.47;4987489;28;20049;-75
2023/08/29 08:12:42;;;;;;;1.42;1.20;;;;;;;18.97;100.00;99833.41;4991124;28;20053;-74
2023/08/29 08:15:10;;;;;;;3.47;1.33;;;;;;;19.05;100.00;99832.72;4996865;28;20053;-73
2023/08/29 08:17:44;;;;;;;3.10;1.70;;;;;;;19.08;100.00;99833.28;5012256;28;20042;-75
2023/08/29 08:20:12;;;;;;;3.17;1.30;;;;;;;19.16;100.00;99838.81;4988865;28;20050;-73
2023/08/29 08:22:42;;;;;;;3.05;1.45;;;;;;;19.15;99.60;99828.22;5012353;28;20056;-73
2023/08/29 08:25:13;;;;;;;2.75;1.58;;;;;;;19.14;97.58;99815.78;4991736;28;20438;-73
2023/08/29 08:27:42;;;;;;;2.00;1.33;;;;;;;19.24;97.07;99830.88;5004115;28;20042;-75
2023/08/29 08:30:11;;;;;;;1.55;1.10;;;;;;;19.37;97.90;99816.34;4991834;28;20062;-73
2023/08/29 08:32:39;;;;;;;3.58;1.45;;;;;;;19.62;96.29;99834.59;4996495;28;20073;-74
2023/08/29 08:35:09;;;;;;;3.78;1.27;;;;;;;19.67;95.00;99820.75;5030094;28;20100;-74
2023/08/29 08:37:37;;;;;;;2.22;1.30;;;;;;;19.87;94.90;99825.91;4998897;28;20046;-74
2023/08/29 08:40:10;;;;;;;2.60;1.40;;;;;;;19.99;94.12;99836.50;4991615;28;20109;-74
2023/08/29 08:42:41;;;;;;;5.07;1.50;;;;;;;20.09;92.35;99843.56;5039815;28;20485;-80
2023/08/29 08:45:10;;;;;;;1.92;1.40;;;;;;;20.09;93.16;99831.94;5027406;28;20038;-80
2023/08/29 08:47:43;;;;;;;3.50;1.48;;;;;;;20.37;93.59;99847.16;5044152;28;20069;-81
2023/08/29 08:50:15;;;;;;;1.98;1.00;;;;;;;20.59;91.98;99835.19;5010280;28;20036;-80
2023/08/29 08:52:46;;;;;;;2.40;1.30;;;;;;;20.66;85.27;99814.72;5012944;28;20861;-81
2023/08/29 08:55:19;;;;;;;3.70;1.30;;;;;;;21.04;85.39;99840.56;5012646;28;20038;-81
2023/08/29 08:57:50;;;;;;;5.85;1.63;;;;;;;20.89;82.46;99799.88;5009211;28;20042;-81
2023/08/29 09:00:20;;;;;;;1.88;1.13;;;;;;;21.10;82.73;99834.56;5021330;28;20077;-81
2023/08/29 09:02:51;;;;;;;1.88;1.10;;;;;;;21.03;84.48;99820.03;5015054;28;20042;-80
2023/08/29 09:05:20;;;;;;;2.35;1.05;;;;;;;21.26;81.18;99840.13;5031343;28;20069;-82
2023/08/29 09:07:49;;;;;;;3.63;1.15;;;;;;;21.24;79.08;99839.47;5012549;28;20041;-81
2023/08/29 09:10:20;;;;;;;5.20;1.38;;;;;;;21.27;76.56;99820.28;4997186;28;20072;-79
2023/08/29 09:12:54;;;;;;;2.55;1.10;;;;;;;21.32;74.64;99850.31;5000379;28;20093;-81
2023/08/29 09:15:23;;;;;;;2.72;1.02;;;;;;;21.01;77.85;99795.94;5023156;28;20038;-81
2023/08/29 09:17:55;;;;;;;3.17;1.20;;;;;;;21.04;81.03;99816.34;5009058;28;20030;-80
2023/08/29 09:20:30;;;;;;;2.38;1.08;;;;;;;20.79;80.70;99782.06;5003544;28;20153;-82
2023/08/29 09:23:08;;;;;;;2.78;0.98;;;;;;;21.13;79.08;99822.63;5025367;28;20429;-81
2023/08/29 09:25:41;;;;;;;1.95;1.00;;;;;;;20.81;77.99;99782.78;5021878;28;20038;-79
2023/08/29 09:28:12;;;;;;;2.15;0.95;;;;;;;20.67;80.57;99773.38;5022167;28;20494;-84
2023/08/29 09:30:42;;;;;;;7.03;0.90;;;;;;;21.07;78.24;99848.34;5002820;28;20052;-80
2023/08/29 09:33:11;;;;;;;4.03;0.90;;;;;;;20.87;77.72;99817.16;5005766;28;20046;-79
2023/08/29 09:35:40;;;;;;;1.90;0.85;;;;;;;20.76;78.43;99814.69;5007664;28;20061;-81
2023/08/29 09:38:11;;;;;;;2.45;0.93;;;;;;;20.76;78.43;99817.38;5002113;28;20057;-79
2023/08/29 09:40:49;;;;;;;2.35;0.90;;;;;;;20.79;78.03;99852.03;4999327;28;20042;-81
2023/08/29 09:43:21;;;;;;;2.45;0.90;;;;;;;20.27;80.07;99804.16;5008321;28;20046;-80
2023/08/29 09:45:57;;;;;;;3.05;0.93;;;;;;;19.92;81.33;99788.72;5023233;28;20042;-80
2023/08/29 09:48:33;;;;;;;3.28;0.98;;;;;;;19.93;82.53;99824.50;5006513;28;20062;-80
2023/08/29 09:51:03;;;;;;;4.00;1.10;;;;;;;19.79;87.60;99846.44;4986422;28;20054;-82
2023/08/29 09:53:32;;;;;;;4.38;1.60;;;;;;;19.58;97.41;99862.72;4991148;28;20066;-80
2023/08/29 09:56:07;;;;;;;3.67;1.67;;;;;;;19.01;100.00;99866.19;5006496;28;20239;-79
2023/08/29 09:58:40;;;;;;;4.70;1.80;;;;;;;18.04;100.00;99838.16;4999086;28;20057;-77
2023/08/29 10:01:14;;;;;;;6.20;2.10;;;;;;;17.38;100.00;99857.13;4980820;28;20415;-74
2023/08/29 10:03:44;;;;;;;4.53;2.03;;;;;;;16.86;100.00;99871.25;4972918;28;20056;-74
2023/08/29 10:06:17;;;;;;;4.50;2.25;;;;;;;16.30;100.00;99863.25;4975390;28;20057;-74
2023/08/29 10:08:47;;;;;;;6.28;2.92;;;;;;;16.07;100.00;99856.19;4976456;28;20042;-74
2023/08/29 10:11:19;;;;;;;6.80;3.28;;;;;;;15.94;100.00;99877.66;4990082;28;20064;-76
2023/08/29 10:13:48;;;;;;;7.60;4.00;;;;;;;15.69;100.00;99849.34;4998648;28;20070;-75
2023/08/29 10:16:17;;;;;;;8.10;4.43;;;;;;;15.44;100.00;99861.00;4996252;28;20065;-75
2023/08/29 10:18:50;;;;;;;7.25;4.68;;;;;;;15.30;100.00;99869.19;4981641;28;20481;-75
2023/08/29 10:21:21;;;;;;;7.90;4.40;;;;;;;15.28;100.00;99854.25;4977450;28;20054;-74
2023/08/29 10:23:50;;;;;;;9.13;5.25;;;;;;;15.39;100.00;99841.81;4974148;28;20051;-74
2023/08/29 10:26:21;;;;;;;13.20;7.40;;;;;;;15.56;100.00;99851.25;4956937;28;20145;-72
2023/08/29 10:28:51;;;;;;;12.40;6.88;;;;;;;15.64;100.00;99853.31;4987598;28;20498;-74
2023/08/29 10:31:20;;;;;;;12.07;7.77;;;;;;;15.61;100.00;99850.88;4969289;28;20046;-74
2023/08/29 10:33:49;;;;;;;11.95;7.78;;;;;;;15.57;100.00;99846.78;4973091;28;20042;-75
2023/08/29 10:36:19;;;;;;;14.52;8.25;;;;;;;15.73;100.00;99853.50;4986088;28;20043;-74
2023/08/29 10:38:50;;;;;;;15.50;8.85;;;;;;;15.75;100.00;99846.19;4972597;28;20058;-74
2023/08/29 10:41:44;;;;;;;14.60;9.88;;;;;;;15.95;100.00;99846.47;4953677;28;20050;-72
2023/08/29 10:44:26;;;;;;;15.70;11.18;;;;;;;16.15;100.00;99837.75;4970842;28;20050;-74
2023/08/29 10:46:56;;;;;;;13.68;10.57;;;;;;;16.31;100.00;99832.06;4992331;28;20042;-73
2023/08/29 10:49:42;;;;;;;17.17;12.50;;;;;;;16.52;100.00;99834.84;4985488;28;20046;-73
2023/08/29 10:52:12;;;;;;;22.70;12.98;;;;;;;16.54;100.00;99822.19;4964686;28;20342;-72
2023/08/29 10:54:46;;;;;;;16.23;11.20;;;;;;;16.66;100.00;99819.41;4986719;28;20038;-74
2023/08/29 10:57:28;;;;;;;14.68;9.70;;;;;;;16.66;100.00;99821.25;4967634;28;20137;-73
2023/08/29 10:59:58;;;;;;;12.23;9.35;;;;;;;16.64;100.00;99820.50;4987623;28;20041;-73
2023/08/29 11:02:29;;;;;;;11.73;7.78;;;;;;;16.60;100.00;99819.03;4965523;28;20108;-74
2023/08/29 11:05:15;;;;;;;11.73;8.10;;;;;;;16.58;100.00;99820.97;4970885;28;20054;-73
2023/08/29 11:07:45;;;;;;;11.75;8.23;;;;;;;16.53;100.00;99817.84;4969809;28;20488;-72
2023/08/29 11:10:17;;;;;;;9.02;7.45;;;;;;;16.48;100.00;99815.53;4980606;28;20069;-74
2023/08/29 11:13:07;;;;;;;8.48;6.60;;;;;;;16.51;100.00;99812.59;4955356;28;20055;-74
2023/08/29 11:16:07;;;;;;;8.18;6.45;;;;;;;16.60;100.00;99813.69;4982550;28;20034;-74
2023/08/29 11:18:36;;;;;;;10.85;5.85;;;;;;;16.68;100.00;99805.94;4968763;28;20486;-72
2023/08/29 11:21:06;;;;;;;7.30;5.88;;;;;;;16.77;100.00;99807.84;4964636;28;20043;-76
2023/08/29 11:23:38;;;;;;;9.43;7.00;;;;;;;16.85;100.00;99810.72;4969032;28;20065;-74
2023/08/29 11:26:08;;;;;;;9.57;7.82;;;;;;;16.99;100.00;99798.91;4972231;28;20043;-74
2023/08/29 11:28:42;;;;;;;11.67;7.53;;;;;;;17.09;100.00;99813.22;4985258;28;20059;-72
2023/08/29 11:31:13;;;;;;;6.43;5.70;;;;;;;16.88;100.00;99783.72;4967025;28;21514;-75
2023/08/29 11:33:41;;;;;;;9.02;5.32;;;;;;;17.22;100.00;99803.19;4971826;28;20050;-73
2023/08/29 11:36:10;;;;;;;5.30;4.60;;;;;;;17.34;100.00;99809.31;4992229;28;20456;-75
2023/08/29 11:38:44;;;;;;;6.35;4.18;;;;;;;17.37;100.00;99809.91;4988683;28;20050;-75
2023/08/29 11:41:14;;;;;;;5.97;3.92;;;;;;;17.45;100.00;99799.44;4983743;28;20787;-75